Terminal Aerodrome Forecast
Issued by NWS Detroit/Pontiac, MI

Home | Current Version | Previous Version | Text Only | Print | Product List | Glossary On
Versions: 1 2 3 4 5 6 7 8 9 10 11 12 13 14 15 16 17 18 19 20 21 22 23 24 25 26 27 28 29 30 31
000
FTUS43 KDTX 041914 AAA
TAFDTW
TAF AMD
KDTW 041914Z 0419/0524 16005KT P6SM SCT018 SCT035
      TEMPO 0419/0421 BKN035
     FM050200 14003KT P6SM BKN040
     FM050800 VRB02KT 4SM BR BKN040
     FM051400 23006KT P6SM SCT040 BKN150=

USA.gov is the U.S. government's official web portal to all federal, state and local government web resources and services.